createdAt,value
2022-11-05T00:02:14.450Z,0.70
2022-11-05T00:05:24.479Z,1.07
2022-11-05T00:08:33.736Z,0.70
2022-11-05T00:11:26.942Z,0.62
2022-11-05T00:14:49.293Z,0.57
2022-11-05T00:17:40.922Z,0.57
2022-11-05T00:20:32.204Z,0.75
2022-11-05T00:23:57.865Z,0.50
2022-11-05T00:29:29.598Z,0.78
2022-11-05T00:32:22.749Z,0.70
2022-11-05T00:35:16.400Z,0.65
2022-11-05T00:38:07.737Z,0.78
2022-11-05T00:41:00.761Z,0.60
2022-11-05T00:44:10.150Z,0.42
2022-11-05T00:47:20.494Z,0.55
2022-11-05T00:50:13.208Z,0.60
2022-11-05T00:53:05.715Z,1.02
2022-11-05T00:56:00.560Z,0.85
2022-11-05T00:58:52.032Z,0.78
2022-11-05T01:01:43.547Z,1.60
2022-11-05T01:04:34.953Z,1.80
2022-11-05T01:07:26.612Z,2.17
2022-11-05T01:10:18.157Z,1.00
2022-11-05T01:13:12.958Z,1.30
2022-11-05T01:16:07.513Z,1.98
2022-11-05T01:18:58.847Z,2.20
2022-11-05T01:21:50.344Z,2.02
2022-11-05T01:24:41.890Z,1.90
2022-11-05T01:27:33.041Z,1.90
2022-11-05T01:30:25.040Z,2.02
2022-11-05T01:33:16.539Z,2.20
2022-11-05T01:36:09.013Z,1.30
2022-11-05T01:39:02.026Z,1.20
2022-11-05T01:41:53.355Z,1.35
2022-11-05T01:45:03.493Z,1.80
2022-11-05T01:48:02.103Z,1.20
2022-11-05T01:50:57.357Z,1.17
2022-11-05T01:53:51.709Z,0.60
2022-11-05T01:56:45.985Z,0.60
2022-11-05T01:59:39.756Z,0.62
2022-11-05T02:02:32.583Z,0.70
2022-11-05T02:05:25.278Z,0.93
2022-11-05T02:10:59.709Z,1.20
2022-11-05T02:13:52.300Z,0.60
2022-11-05T02:16:47.105Z,0.40
2022-11-05T02:19:57.190Z,0.80
2022-11-05T02:23:36.516Z,0.60
2022-11-05T02:26:59.246Z,1.65
2022-11-05T02:30:29.930Z,2.62
2022-11-05T02:33:34.381Z,2.75
2022-11-05T02:36:32.518Z,4.40
2022-11-05T02:39:30.732Z,4.20
2022-11-05T02:42:25.840Z,4.00
2022-11-05T02:45:24.293Z,4.37
2022-11-05T02:48:24.996Z,2.83
2022-11-05T02:51:20.032Z,3.08
2022-11-05T02:54:15.963Z,2.67
2022-11-05T02:57:07.597Z,2.95
2022-11-05T03:00:08.444Z,3.15
2022-11-05T03:02:59.603Z,1.72
2022-11-05T03:05:59.986Z,1.87
2022-11-05T03:09:12.970Z,1.42
2022-11-05T03:12:09.390Z,1.62
2022-11-05T03:15:06.010Z,1.87
2022-11-05T03:18:03.855Z,1.47
2022-11-05T03:21:00.601Z,1.27
2022-11-05T03:23:55.309Z,1.10
2022-11-05T03:26:51.013Z,1.50
2022-11-05T03:29:45.537Z,1.40
2022-11-05T03:32:40.035Z,1.65
2022-11-05T03:35:33.951Z,1.30
2022-11-05T03:38:28.417Z,0.88
2022-11-05T03:41:21.921Z,0.60
2022-11-05T03:44:16.146Z,0.60
2022-11-05T03:47:10.306Z,0.50
2022-11-05T03:50:05.428Z,0.50
2022-11-05T03:55:42.892Z,0.40
2022-11-05T03:58:34.857Z,0.82
2022-11-05T04:01:26.917Z,1.27
2022-11-05T04:04:18.280Z,1.30
2022-11-05T04:07:28.205Z,0.80
2022-11-05T04:10:36.891Z,1.32
2022-11-05T04:13:28.289Z,1.37
2022-11-05T04:16:37.063Z,1.52
2022-11-05T04:19:47.118Z,1.57
2022-11-05T04:22:56.567Z,1.70
2022-11-05T04:25:48.115Z,1.50
2022-11-05T04:29:00.529Z,1.70
2022-11-05T04:31:51.625Z,1.22
2022-11-05T04:34:43.090Z,0.95
2022-11-05T04:37:33.886Z,1.32
2022-11-05T04:40:25.055Z,1.10
2022-11-05T04:43:18.878Z,1.37
2022-11-05T04:46:10.664Z,1.55
2022-11-05T04:49:01.548Z,1.70
2022-11-05T04:51:52.710Z,1.70
2022-11-05T04:54:44.004Z,1.40
2022-11-05T04:57:35.680Z,1.37
2022-11-05T05:00:27.033Z,1.50
2022-11-05T05:03:18.672Z,1.80
2022-11-05T05:06:11.057Z,1.80
2022-11-05T05:09:03.224Z,1.70
2022-11-05T05:11:54.363Z,1.60
2022-11-05T05:14:47.377Z,1.80
2022-11-05T05:17:38.810Z,1.80
2022-11-05T05:21:07.300Z,1.87
2022-11-05T05:26:38.045Z,1.60
2022-11-05T05:29:29.141Z,1.80
2022-11-05T05:32:20.682Z,1.40
2022-11-05T05:35:12.867Z,0.90
2022-11-05T05:38:04.254Z,0.30
2022-11-05T05:40:58.559Z,0.35
2022-11-05T05:43:49.847Z,0.50
2022-11-05T05:46:41.164Z,1.32
2022-11-05T05:49:32.835Z,1.35
2022-11-05T05:52:24.139Z,0.70
2022-11-05T05:55:15.685Z,0.28
2022-11-05T05:58:07.033Z,0.20
2022-11-05T06:01:00.775Z,0.60
2022-11-05T06:03:52.364Z,0.28
2022-11-05T06:06:45.501Z,0.30
2022-11-05T06:09:36.679Z,0.30
2022-11-05T06:12:29.601Z,0.35
2022-11-05T06:15:21.292Z,0.40
2022-11-05T06:18:12.756Z,0.40
2022-11-05T06:21:04.568Z,0.35
2022-11-05T06:26:38.225Z,1.25
2022-11-05T06:29:29.810Z,0.47
2022-11-05T06:32:21.158Z,1.00
2022-11-05T06:35:12.251Z,0.50
2022-11-05T06:38:03.958Z,1.20
2022-11-05T06:40:55.388Z,0.75
2022-11-05T06:43:46.904Z,1.50
2022-11-05T06:46:38.287Z,1.65
2022-11-05T06:49:30.068Z,2.20
2022-11-05T06:52:22.488Z,1.50
2022-11-05T06:55:13.702Z,1.60
2022-11-05T06:58:05.181Z,1.90
2022-11-05T07:00:56.620Z,1.80
2022-11-05T07:03:49.058Z,1.90
2022-11-05T07:06:40.326Z,1.00
2022-11-05T07:09:31.551Z,1.00
2022-11-05T07:12:22.668Z,1.40
2022-11-05T07:15:14.953Z,1.87
2022-11-05T07:20:47.239Z,2.17
2022-11-05T07:23:38.474Z,1.70
2022-11-05T07:26:34.377Z,2.27
2022-11-05T07:29:22.310Z,2.45
2022-11-05T07:32:13.484Z,1.57
2022-11-05T07:35:04.931Z,1.45
2022-11-05T07:37:57.533Z,2.00
2022-11-05T07:40:48.861Z,1.70
2022-11-05T07:43:40.110Z,1.90
2022-11-05T07:46:31.204Z,2.00
2022-11-05T07:49:23.868Z,2.25
2022-11-05T07:52:14.962Z,1.87
2022-11-05T07:55:07.689Z,2.20
2022-11-05T07:57:58.992Z,1.80
2022-11-05T08:00:50.370Z,3.00
2022-11-05T08:06:25.988Z,2.40
2022-11-05T08:09:17.387Z,1.95
2022-11-05T08:12:10.111Z,1.90
2022-11-05T08:15:01.281Z,1.80
2022-11-05T08:17:54.540Z,1.22
2022-11-05T08:20:53.695Z,2.12
2022-11-05T08:23:45.357Z,1.70
2022-11-05T08:26:36.449Z,1.50
2022-11-05T08:29:27.883Z,1.92
2022-11-05T08:32:19.472Z,2.40
2022-11-05T08:35:11.386Z,1.62
2022-11-05T08:38:04.933Z,1.70
2022-11-05T08:41:00.693Z,1.52
2022-11-05T08:43:51.971Z,1.40
2022-11-05T08:46:50.221Z,2.08
2022-11-05T08:49:41.519Z,2.00
2022-11-05T08:52:39.716Z,2.00
2022-11-05T08:55:31.217Z,1.92
2022-11-05T08:58:22.420Z,1.85
2022-11-05T09:01:13.976Z,1.40
2022-11-05T09:04:05.848Z,1.57
2022-11-05T09:06:57.230Z,1.50
2022-11-05T09:09:48.720Z,1.10
2022-11-05T09:12:39.946Z,1.50
2022-11-05T09:15:32.034Z,1.52
2022-11-05T09:18:23.314Z,1.12
2022-11-05T09:21:14.797Z,1.17
2022-11-05T09:24:06.840Z,1.05
2022-11-05T09:26:58.217Z,1.00
2022-11-05T09:29:49.780Z,0.75
2022-11-05T09:32:41.240Z,0.50
2022-11-05T09:35:32.779Z,1.05
2022-11-05T09:38:24.441Z,0.75
2022-11-05T09:41:20.799Z,0.50
2022-11-05T09:44:16.620Z,0.57
2022-11-05T09:47:11.281Z,0.45
2022-11-05T09:50:06.038Z,0.55
2022-11-05T09:52:57.476Z,0.45
2022-11-05T09:55:51.175Z,0.50
2022-11-05T10:01:34.427Z,0.40
2022-11-05T10:04:30.704Z,0.40
2022-11-05T10:07:25.033Z,0.45
2022-11-05T10:10:24.260Z,0.50
2022-11-05T10:13:20.712Z,0.57
2022-11-05T10:16:16.329Z,0.53
2022-11-05T10:19:10.745Z,0.47
2022-11-05T10:22:07.225Z,0.62
2022-11-05T10:24:58.778Z,0.60
2022-11-05T10:27:53.526Z,0.50
2022-11-05T10:30:45.931Z,0.88
2022-11-05T10:33:40.511Z,0.90
2022-11-05T10:36:34.977Z,0.40
2022-11-05T10:39:28.779Z,0.40
2022-11-05T10:42:32.503Z,0.37
2022-11-05T10:45:29.399Z,0.50
2022-11-05T10:48:43.291Z,0.40
2022-11-05T10:51:30.518Z,1.37
2022-11-05T10:54:25.876Z,0.40
2022-11-05T10:57:37.413Z,0.30
2022-11-05T11:00:30.427Z,0.50
2022-11-05T11:03:40.741Z,0.45
2022-11-05T11:06:36.896Z,0.40
2022-11-05T11:09:31.981Z,0.30
2022-11-05T11:12:26.148Z,0.80
2022-11-05T11:15:20.534Z,0.70
2022-11-05T11:18:34.651Z,0.50
2022-11-05T11:21:24.759Z,0.50
2022-11-05T11:27:09.506Z,0.55
2022-11-05T11:30:03.275Z,0.60
2022-11-05T11:32:57.541Z,0.68
2022-11-05T11:35:49.102Z,0.57
2022-11-05T11:38:41.489Z,0.62
2022-11-05T11:41:36.376Z,0.70
2022-11-05T11:44:30.695Z,0.60
2022-11-05T11:47:23.884Z,0.68
2022-11-05T11:50:36.628Z,0.47
2022-11-05T11:56:47.464Z,0.75
2022-11-05T12:00:07.173Z,0.70
2022-11-05T12:02:50.710Z,0.65
2022-11-05T12:05:48.897Z,0.60
2022-11-05T12:08:45.825Z,0.60
2022-11-05T12:14:35.344Z,0.65
2022-11-05T12:17:46.212Z,0.50
2022-11-05T12:20:58.304Z,0.70
2022-11-05T12:24:14.364Z,0.68
2022-11-05T12:27:12.040Z,0.98
2022-11-05T12:33:07.107Z,0.60
2022-11-05T12:36:06.399Z,0.70
2022-11-05T12:41:52.644Z,0.60
2022-11-05T12:44:57.910Z,0.60
2022-11-05T12:47:59.024Z,0.60
2022-11-05T12:50:53.609Z,0.60
2022-11-05T12:56:42.050Z,0.80
2022-11-05T12:59:37.102Z,0.70
2022-11-05T13:02:33.123Z,0.57
2022-11-05T13:05:27.696Z,0.60
2022-11-05T13:08:22.408Z,0.68
2022-11-05T13:11:19.606Z,0.50
2022-11-05T13:16:57.158Z,0.65
2022-11-05T13:19:53.108Z,0.50
2022-11-05T13:22:46.861Z,0.80
2022-11-05T13:25:41.585Z,0.60
2022-11-05T13:31:17.385Z,0.60
2022-11-05T13:34:12.875Z,1.07
2022-11-05T13:37:25.516Z,0.80
2022-11-05T13:40:19.831Z,0.70
2022-11-05T13:43:21.677Z,0.70
2022-11-05T13:46:38.173Z,0.65
2022-11-05T13:49:42.079Z,0.70
2022-11-05T13:52:45.498Z,0.70
2022-11-05T13:56:01.502Z,1.12
2022-11-05T14:01:51.891Z,0.85
2022-11-05T14:04:48.318Z,0.68
2022-11-05T14:07:43.998Z,1.12
2022-11-05T14:10:39.817Z,0.80
2022-11-05T14:13:35.058Z,1.00
2022-11-05T14:16:29.646Z,0.88
2022-11-05T14:19:46.507Z,0.90
2022-11-05T14:22:42.004Z,1.05
2022-11-05T14:26:18.241Z,0.98
2022-11-05T14:29:26.539Z,0.90
2022-11-05T14:32:31.145Z,0.80
2022-11-05T14:35:38.956Z,0.88
2022-11-05T14:38:30.909Z,0.93
2022-11-05T14:41:23.045Z,0.78
2022-11-05T14:44:14.570Z,0.80
2022-11-05T14:47:08.179Z,0.85
2022-11-05T14:50:04.735Z,0.93
2022-11-05T14:52:57.907Z,1.20
2022-11-05T14:55:50.658Z,0.95
2022-11-05T15:01:54.907Z,0.78
2022-11-05T15:04:47.522Z,0.72
2022-11-05T15:07:39.981Z,0.93
2022-11-05T15:10:34.969Z,0.78
2022-11-05T15:13:30.607Z,0.85
2022-11-05T15:16:25.775Z,0.98
2022-11-05T15:19:21.325Z,0.70
2022-11-05T15:22:21.790Z,0.88
2022-11-05T15:25:20.867Z,0.85
2022-11-05T15:28:18.234Z,1.00
2022-11-05T15:31:29.815Z,1.00
2022-11-05T15:34:24.408Z,1.10
2022-11-05T15:37:25.869Z,0.80
2022-11-05T15:40:27.645Z,0.70
2022-11-05T15:43:20.920Z,1.05
2022-11-05T15:49:12.452Z,0.93
2022-11-05T15:54:47.674Z,1.25
2022-11-05T15:57:40.513Z,0.90
2022-11-05T16:00:33.310Z,0.93
2022-11-05T16:03:28.767Z,1.07
2022-11-05T16:06:20.378Z,0.85
2022-11-05T16:09:23.410Z,0.93
2022-11-05T16:12:18.977Z,0.72
2022-11-05T16:18:03.156Z,0.82
2022-11-05T16:21:09.229Z,0.90
2022-11-05T16:27:01.725Z,0.82
2022-11-05T16:29:36.322Z,0.88
2022-11-05T16:32:31.031Z,0.95
2022-11-05T16:35:23.923Z,0.98
2022-11-05T16:38:15.638Z,0.90
2022-11-05T16:41:06.684Z,0.88
2022-11-05T16:44:00.140Z,0.85
2022-11-05T16:46:52.359Z,1.30
2022-11-05T16:52:22.509Z,0.85
2022-11-05T16:55:13.899Z,0.90
2022-11-05T16:58:05.454Z,0.80
2022-11-05T17:01:00.385Z,0.80
2022-11-05T17:03:53.911Z,0.90
2022-11-05T17:06:46.771Z,1.10
2022-11-05T17:09:38.052Z,0.95
2022-11-05T17:12:29.433Z,1.02
2022-11-05T17:15:23.741Z,0.90
2022-11-05T17:18:18.815Z,1.22
2022-11-05T17:21:09.616Z,1.35
2022-11-05T17:26:39.145Z,0.93
2022-11-05T17:29:30.144Z,1.05
2022-11-05T17:32:21.443Z,1.20
2022-11-05T17:50:58.705Z,0.90
2022-11-05T17:56:35.053Z,0.88
2022-11-05T17:59:23.708Z,1.15
2022-11-05T18:02:15.200Z,1.05
2022-11-05T18:05:10.188Z,1.60
2022-11-05T18:08:01.739Z,0.80
2022-11-05T18:10:55.272Z,1.50
2022-11-05T18:13:46.532Z,1.10
2022-11-05T18:16:39.429Z,1.10
2022-11-05T18:19:31.140Z,1.77
2022-11-05T18:22:23.397Z,1.60
2022-11-05T18:39:05.594Z,1.10
2022-11-05T18:41:56.527Z,1.50
2022-11-05T18:44:47.820Z,1.50
2022-11-05T18:47:38.901Z,1.80
2022-11-05T18:50:30.792Z,1.70
2022-11-05T18:53:22.155Z,1.57
2022-11-05T18:56:15.737Z,1.80
2022-11-05T18:59:35.092Z,2.20
2022-11-05T19:01:59.210Z,1.50
2022-11-05T19:07:28.707Z,1.90
2022-11-05T19:13:09.131Z,1.70
2022-11-05T19:16:00.262Z,1.70
2022-11-05T19:18:51.971Z,1.57
2022-11-05T19:21:43.000Z,1.62
2022-11-05T19:24:34.447Z,1.70
2022-11-05T19:30:08.179Z,1.70
2022-11-05T19:32:59.442Z,2.27
2022-11-05T19:35:50.624Z,2.00
2022-11-05T19:38:42.545Z,1.87
2022-11-05T19:41:34.015Z,1.72
2022-11-05T19:44:25.345Z,1.50
2022-11-05T19:47:16.812Z,1.40
2022-11-05T19:50:10.928Z,1.85
2022-11-05T19:53:02.381Z,1.85
2022-11-05T19:55:53.948Z,1.52
2022-11-05T19:58:45.939Z,1.77
2022-11-05T20:01:37.087Z,2.10
2022-11-05T20:04:28.669Z,2.42
2022-11-05T20:07:20.511Z,2.15
2022-11-05T20:10:12.450Z,2.47
2022-11-05T20:13:03.637Z,3.00
2022-11-05T20:15:55.210Z,1.65
2022-11-05T20:21:26.887Z,2.25
2022-11-05T20:24:24.172Z,1.50
2022-11-05T20:27:12.337Z,2.90
2022-11-05T20:32:42.768Z,2.45
2022-11-05T20:35:34.011Z,3.00
2022-11-05T20:38:25.174Z,3.40
2022-11-05T20:41:16.575Z,3.10
2022-11-05T20:44:07.857Z,3.22
2022-11-05T20:46:59.442Z,3.30
2022-11-05T20:49:53.505Z,3.77
2022-11-05T20:52:44.831Z,3.98
2022-11-05T20:55:42.032Z,3.52
2022-11-05T20:58:35.012Z,3.25
2022-11-05T21:01:27.669Z,3.17
2022-11-05T21:04:19.337Z,3.22
2022-11-05T21:07:10.788Z,4.05
2022-11-05T21:10:02.595Z,3.67
2022-11-05T21:15:37.837Z,4.37
2022-11-05T21:18:31.048Z,3.40
2022-11-05T21:21:23.365Z,3.05
2022-11-05T21:24:14.812Z,2.90
2022-11-05T21:27:06.717Z,2.52
2022-11-05T21:29:58.070Z,2.58
2022-11-05T21:35:29.090Z,2.90
2022-11-05T21:38:20.825Z,3.05
2022-11-05T21:41:13.867Z,4.37
2022-11-05T21:44:05.185Z,3.60
2022-11-05T21:46:59.217Z,3.17
2022-11-05T21:49:50.427Z,3.95
2022-11-05T21:55:43.083Z,4.25
2022-11-05T21:58:52.270Z,4.87
2022-11-05T22:01:43.572Z,4.45
2022-11-05T22:04:37.304Z,4.35
2022-11-05T22:10:16.217Z,3.42
2022-11-05T22:15:57.583Z,4.20
2022-11-05T22:18:49.217Z,3.87
2022-11-05T22:21:41.059Z,3.87
2022-11-05T22:24:32.804Z,4.37
2022-11-05T22:27:24.097Z,4.62
2022-11-05T22:30:17.325Z,5.15
2022-11-05T22:35:49.476Z,5.03
2022-11-05T22:38:41.744Z,5.65
2022-11-05T22:41:33.498Z,5.15
2022-11-05T22:44:26.047Z,5.90
2022-11-05T22:47:18.469Z,5.87
2022-11-05T22:50:11.397Z,5.97
2022-11-05T22:55:42.452Z,5.85
2022-11-05T22:58:33.698Z,6.58
2022-11-05T23:01:26.529Z,5.53
2022-11-05T23:04:18.700Z,6.03
2022-11-05T23:07:29.003Z,6.30
2022-11-05T23:13:00.880Z,5.40
2022-11-05T23:16:09.790Z,5.22
2022-11-05T23:19:18.885Z,5.17
2022-11-05T23:22:31.635Z,5.17
2022-11-05T23:25:24.261Z,5.95
2022-11-05T23:28:17.630Z,5.30
2022-11-05T23:31:28.457Z,5.22
2022-11-05T23:34:19.791Z,5.40
2022-11-05T23:37:29.032Z,5.47
2022-11-05T23:40:22.528Z,5.20
2022-11-05T23:46:16.367Z,5.30
2022-11-05T23:49:07.884Z,6.28
2022-11-05T23:51:59.559Z,5.72
2022-11-05T23:54:51.026Z,5.55
2022-11-05T23:57:42.561Z,5.95
